createdAt,value
2023-12-01T00:01:33.944Z,54.41
2023-12-01T00:04:01.485Z,54.36
2023-12-01T00:06:28.802Z,54.40
2023-12-01T00:08:56.138Z,54.41
2023-12-01T00:11:23.391Z,54.38
2023-12-01T00:13:50.744Z,54.39
2023-12-01T00:16:18.003Z,54.33
2023-12-01T00:18:45.386Z,54.35
2023-12-01T00:21:13.111Z,54.33
2023-12-01T00:23:40.366Z,54.33
2023-12-01T00:26:08.234Z,54.39
2023-12-01T00:28:37.684Z,54.35
2023-12-01T00:31:05.241Z,54.25
2023-12-01T00:33:32.916Z,54.32
2023-12-01T00:36:01.938Z,54.31
2023-12-01T00:38:29.192Z,54.31
2023-12-01T00:40:56.451Z,54.25
2023-12-01T00:43:23.877Z,54.31
2023-12-01T00:45:51.284Z,54.28
2023-12-01T00:48:18.628Z,54.26
2023-12-01T00:50:45.966Z,54.31
2023-12-01T00:53:13.288Z,54.17
2023-12-01T00:55:40.666Z,54.19
2023-12-01T00:58:08.055Z,54.26
2023-12-01T01:00:35.423Z,54.20
2023-12-01T01:03:02.809Z,54.21
2023-12-01T01:05:30.506Z,54.22
2023-12-01T01:07:57.954Z,54.13
2023-12-01T01:10:25.302Z,54.20
2023-12-01T01:12:53.110Z,54.20
2023-12-01T01:15:20.628Z,54.11
2023-12-01T01:17:48.007Z,54.09
2023-12-01T01:20:15.446Z,54.04
2023-12-01T01:22:42.877Z,54.10
2023-12-01T01:25:10.686Z,54.09
2023-12-01T01:27:38.054Z,54.10
2023-12-01T01:30:06.435Z,54.13
2023-12-01T01:32:33.852Z,54.13
2023-12-01T01:35:01.292Z,54.06
2023-12-01T01:37:28.635Z,54.06
2023-12-01T01:39:56.033Z,54.06
2023-12-01T01:42:23.345Z,54.04
2023-12-01T01:44:50.812Z,54.08
2023-12-01T01:47:18.358Z,54.05
2023-12-01T01:49:45.606Z,54.04
2023-12-01T01:52:13.216Z,54.06
2023-12-01T01:54:40.852Z,54.08
2023-12-01T01:57:08.076Z,54.02
2023-12-01T01:59:35.743Z,54.00
2023-12-01T02:02:03.043Z,54.03
2023-12-01T02:04:30.561Z,53.98
2023-12-01T02:06:58.421Z,53.91
2023-12-01T02:09:25.668Z,53.97
2023-12-01T02:11:53.330Z,54.00
2023-12-01T02:14:23.466Z,54.00
2023-12-01T02:16:51.298Z,53.93
2023-12-01T02:19:18.710Z,53.94
2023-12-01T02:21:47.555Z,53.93
2023-12-01T02:24:15.450Z,53.88
2023-12-01T02:26:42.803Z,53.87
2023-12-01T02:29:10.227Z,53.90
2023-12-01T02:31:38.069Z,53.89
2023-12-01T02:34:05.562Z,53.86
2023-12-01T02:36:33.092Z,53.88
2023-12-01T02:39:00.671Z,53.95
2023-12-01T02:41:28.237Z,53.88
2023-12-01T02:43:55.990Z,53.84
2023-12-01T02:46:24.820Z,53.84
2023-12-01T02:48:52.747Z,53.89
2023-12-01T02:51:20.199Z,53.87
2023-12-01T02:53:47.858Z,53.82
2023-12-01T02:56:15.530Z,53.84
2023-12-01T02:58:42.970Z,53.83
2023-12-01T03:01:10.294Z,53.79
2023-12-01T03:03:37.772Z,53.87
2023-12-01T03:06:05.379Z,53.81
2023-12-01T03:08:32.924Z,53.84
2023-12-01T03:11:00.199Z,53.84
2023-12-01T03:13:27.499Z,53.75
2023-12-01T03:15:54.992Z,53.74
2023-12-01T03:18:24.085Z,53.73
2023-12-01T03:20:51.710Z,53.74
2023-12-01T03:23:18.888Z,53.77
2023-12-01T03:25:46.111Z,53.76
2023-12-01T03:28:13.460Z,53.76
2023-12-01T03:30:40.876Z,53.69
2023-12-01T03:33:08.186Z,53.71
2023-12-01T03:35:35.539Z,53.70
2023-12-01T03:38:02.886Z,53.70
2023-12-01T03:40:30.237Z,53.69
2023-12-01T03:42:57.778Z,53.65
2023-12-01T03:45:25.142Z,53.59
2023-12-01T03:47:53.154Z,53.63
2023-12-01T03:50:21.767Z,53.65
2023-12-01T03:52:50.931Z,53.71
2023-12-01T03:55:18.420Z,53.63
2023-12-01T03:57:46.753Z,53.59
2023-12-01T04:00:16.628Z,53.57
2023-12-01T04:02:45.120Z,53.59
2023-12-01T04:05:24.684Z,53.53
2023-12-01T04:07:55.665Z,53.67
2023-12-01T04:10:27.358Z,53.55
2023-12-01T04:12:56.533Z,53.53
2023-12-01T04:15:27.652Z,53.53
2023-12-01T04:17:55.679Z,53.51
2023-12-01T04:20:23.847Z,53.58
2023-12-01T04:22:52.350Z,53.52
2023-12-01T04:25:20.084Z,53.55
2023-12-01T04:27:47.970Z,53.58
2023-12-01T04:30:15.810Z,53.59
2023-12-01T04:32:47.196Z,53.49
2023-12-01T04:35:14.818Z,53.52
2023-12-01T04:37:42.997Z,53.49
2023-12-01T04:40:16.952Z,53.50
2023-12-01T04:42:48.220Z,53.38
2023-12-01T04:45:22.916Z,53.42
2023-12-01T04:47:54.027Z,53.40
2023-12-01T04:50:25.499Z,53.43
2023-12-01T04:52:57.852Z,53.43
2023-12-01T04:55:30.044Z,53.47
2023-12-01T04:57:57.923Z,53.45
2023-12-01T05:00:28.122Z,53.45
2023-12-01T05:02:56.555Z,53.43
2023-12-01T05:05:25.495Z,53.45
2023-12-01T05:07:54.482Z,53.36
2023-12-01T05:10:22.903Z,53.47
2023-12-01T05:12:56.198Z,53.33
2023-12-01T05:15:25.852Z,53.35
2023-12-01T05:17:57.134Z,53.42
2023-12-01T05:20:25.562Z,53.38
2023-12-01T05:22:53.951Z,53.34
2023-12-01T05:25:22.141Z,53.34
2023-12-01T05:27:50.735Z,53.30
2023-12-01T05:30:19.456Z,53.35
2023-12-01T05:32:48.030Z,53.31
2023-12-01T05:35:15.495Z,53.28
2023-12-01T05:37:47.760Z,53.36
2023-12-01T05:40:37.539Z,53.03
2023-12-01T05:43:06.078Z,52.82
2023-12-01T05:45:34.862Z,52.80
2023-12-01T05:48:04.537Z,52.60
2023-12-01T05:50:32.601Z,52.59
2023-12-01T05:53:01.847Z,52.46
2023-12-01T05:55:35.252Z,52.42
2023-12-01T05:58:12.362Z,52.32
2023-12-01T06:00:40.433Z,52.25
2023-12-01T06:03:09.114Z,52.20
2023-12-01T06:05:38.498Z,52.15
2023-12-01T06:08:13.331Z,52.14
2023-12-01T06:10:41.107Z,52.08
2023-12-01T06:13:09.428Z,52.10
2023-12-01T06:15:37.354Z,52.31
2023-12-01T06:18:05.208Z,52.47
2023-12-01T06:20:33.412Z,52.48
2023-12-01T06:23:02.202Z,52.61
2023-12-01T06:25:32.443Z,52.76
2023-12-01T06:31:13.731Z,53.24
2023-12-01T06:33:41.083Z,53.37
2023-12-01T06:36:09.724Z,53.51
2023-12-01T06:38:37.018Z,53.63
2023-12-01T06:41:04.455Z,53.60
2023-12-01T06:43:32.209Z,53.57
2023-12-01T06:46:00.640Z,53.49
2023-12-01T06:48:28.038Z,53.51
2023-12-01T06:50:55.302Z,53.42
2023-12-01T06:53:22.516Z,53.32
2023-12-01T06:55:51.409Z,53.31
2023-12-01T06:58:19.984Z,53.32
2023-12-01T07:00:49.650Z,53.33
2023-12-01T07:03:17.030Z,53.41
2023-12-01T07:05:46.783Z,53.55
2023-12-01T07:08:14.706Z,53.67
2023-12-01T07:10:43.102Z,53.81
2023-12-01T07:13:10.723Z,53.86
2023-12-01T07:15:39.271Z,53.97
2023-12-01T07:18:07.147Z,53.92
2023-12-01T07:20:35.167Z,54.06
2023-12-01T07:23:05.941Z,54.00
2023-12-01T07:25:35.188Z,53.85
2023-12-01T07:28:04.604Z,53.36
2023-12-01T07:30:31.991Z,52.86
2023-12-01T07:33:02.007Z,52.32
2023-12-01T07:35:29.776Z,52.23
2023-12-01T07:37:57.135Z,52.24
2023-12-01T07:40:26.104Z,52.29
2023-12-01T07:42:56.386Z,52.41
2023-12-01T07:45:23.881Z,52.52
2023-12-01T07:47:52.510Z,52.65
2023-12-01T07:50:20.389Z,52.72
2023-12-01T07:52:49.351Z,52.82
2023-12-01T07:55:18.285Z,52.90
2023-12-01T07:57:45.802Z,53.03
2023-12-01T08:00:18.628Z,53.19
2023-12-01T08:02:54.747Z,53.21
2023-12-01T08:05:25.206Z,53.60
2023-12-01T08:07:55.468Z,53.76
2023-12-01T08:10:26.019Z,53.97
2023-12-01T08:12:59.299Z,54.07
2023-12-01T08:15:34.017Z,54.23
2023-12-01T08:18:20.579Z,54.40
2023-12-01T08:20:51.387Z,54.53
2023-12-01T08:23:24.712Z,53.90
2023-12-01T08:25:53.637Z,52.91
2023-12-01T08:28:21.103Z,52.22
2023-12-01T08:30:50.073Z,51.88
2023-12-01T08:33:19.495Z,51.35
2023-12-01T08:35:48.538Z,50.60
2023-12-01T08:38:27.745Z,49.89
2023-12-01T08:40:55.561Z,49.40
2023-12-01T08:43:23.337Z,48.96
2023-12-01T08:45:50.616Z,48.66
2023-12-01T08:48:18.049Z,48.34
2023-12-01T08:50:47.689Z,48.05
2023-12-01T08:53:15.929Z,47.92
2023-12-01T08:55:43.285Z,47.61
2023-12-01T08:58:10.655Z,47.32
2023-12-01T09:00:39.119Z,47.17
2023-12-01T09:03:07.235Z,46.83
2023-12-01T09:05:35.051Z,46.79
2023-12-01T09:08:05.896Z,46.35
2023-12-01T09:10:33.846Z,46.18
2023-12-01T09:13:01.620Z,46.03
2023-12-01T09:15:30.749Z,45.85
2023-12-01T09:17:58.296Z,45.40
2023-12-01T09:20:27.056Z,45.19
2023-12-01T09:22:54.408Z,44.66
2023-12-01T09:25:21.757Z,44.62
2023-12-01T09:27:49.209Z,44.65
2023-12-01T09:30:18.919Z,44.66
2023-12-01T09:32:47.427Z,44.63
2023-12-01T09:35:52.197Z,44.54
2023-12-01T09:38:06.337Z,44.49
2023-12-01T09:40:36.379Z,44.43
2023-12-01T09:43:03.694Z,44.44
2023-12-01T09:45:31.906Z,44.70
2023-12-01T09:48:00.724Z,45.04
2023-12-01T09:50:28.342Z,45.33
2023-12-01T09:52:56.026Z,45.63
2023-12-01T09:55:23.493Z,45.88
2023-12-01T09:57:53.707Z,46.06
2023-12-01T10:00:21.532Z,46.21
2023-12-01T10:02:50.023Z,46.37
2023-12-01T10:05:19.981Z,46.57
2023-12-01T10:07:47.523Z,46.73
2023-12-01T10:10:22.288Z,46.91
2023-12-01T10:13:06.384Z,47.02
2023-12-01T10:15:34.667Z,47.16
2023-12-01T10:18:16.165Z,47.32
2023-12-01T10:21:00.415Z,47.49
2023-12-01T10:23:29.264Z,47.60
2023-12-01T10:25:57.744Z,47.73
2023-12-01T10:28:28.117Z,47.78
2023-12-01T10:30:59.446Z,47.86
2023-12-01T10:33:28.005Z,48.00
2023-12-01T10:36:11.690Z,48.14
2023-12-01T10:38:39.008Z,48.30
2023-12-01T10:41:06.804Z,48.43
2023-12-01T10:43:34.244Z,48.51
2023-12-01T10:46:04.232Z,48.64
2023-12-01T10:48:32.730Z,48.83
2023-12-01T10:51:00.261Z,49.13
2023-12-01T10:53:27.755Z,49.32
2023-12-01T10:55:55.838Z,49.38
2023-12-01T10:58:24.550Z,49.52
2023-12-01T11:00:53.565Z,49.53
2023-12-01T11:03:24.371Z,49.59
2023-12-01T11:06:05.758Z,49.86
2023-12-01T11:08:48.260Z,49.87
2023-12-01T11:11:25.777Z,49.95
2023-12-01T11:13:56.179Z,49.95
2023-12-01T11:16:23.495Z,49.99
2023-12-01T11:18:50.898Z,49.95
2023-12-01T11:21:19.015Z,50.02
2023-12-01T11:23:46.383Z,50.03
2023-12-01T11:26:13.749Z,49.94
2023-12-01T11:28:41.086Z,49.98
2023-12-01T11:31:09.874Z,50.01
2023-12-01T11:33:47.339Z,50.05
2023-12-01T11:36:20.939Z,50.13
2023-12-01T11:39:19.771Z,50.26
2023-12-01T11:41:56.962Z,50.69
2023-12-01T11:44:37.688Z,51.22
2023-12-01T11:47:08.413Z,51.43
2023-12-01T11:49:40.380Z,51.60
2023-12-01T11:52:16.355Z,51.67
2023-12-01T11:54:44.016Z,51.61
2023-12-01T11:57:17.687Z,51.69
2023-12-01T11:59:45.706Z,51.65
2023-12-01T12:02:16.035Z,51.76
2023-12-01T12:04:50.083Z,51.85
2023-12-01T12:07:18.307Z,51.78
2023-12-01T12:09:47.053Z,51.86
2023-12-01T12:12:16.498Z,51.79
2023-12-01T12:14:44.497Z,51.73
2023-12-01T12:17:12.663Z,51.75
2023-12-01T12:19:48.337Z,51.81
2023-12-01T12:22:21.595Z,51.71
2023-12-01T12:24:49.830Z,51.70
2023-12-01T12:27:17.612Z,51.69
2023-12-01T12:29:46.338Z,51.66
2023-12-01T12:32:13.934Z,51.64
2023-12-01T12:34:43.509Z,51.57
2023-12-01T12:37:14.517Z,51.62
2023-12-01T12:39:46.072Z,51.78
2023-12-01T12:42:17.181Z,51.79
2023-12-01T12:44:46.282Z,51.87
2023-12-01T12:47:13.715Z,51.93
2023-12-01T12:49:41.654Z,52.08
2023-12-01T12:52:08.940Z,52.13
2023-12-01T12:54:36.303Z,52.37
2023-12-01T12:57:04.526Z,52.39
2023-12-01T12:59:31.923Z,52.53
2023-12-01T13:02:00.336Z,52.60
2023-12-01T13:04:28.162Z,52.79
2023-12-01T13:06:57.966Z,52.91
2023-12-01T13:09:25.671Z,53.04
2023-12-01T13:11:53.146Z,53.36
2023-12-01T13:14:20.445Z,53.51
2023-12-01T13:16:55.095Z,52.85
2023-12-01T13:19:26.132Z,52.57
2023-12-01T13:21:55.992Z,52.61
2023-12-01T13:24:26.853Z,52.62
2023-12-01T13:26:55.679Z,52.72
2023-12-01T13:29:23.100Z,52.70
2023-12-01T13:31:50.897Z,52.84
2023-12-01T13:34:19.772Z,52.84
2023-12-01T13:36:49.928Z,52.89
2023-12-01T13:39:18.548Z,52.87
2023-12-01T13:41:46.606Z,52.85
2023-12-01T13:44:14.095Z,52.81
2023-12-01T13:46:41.724Z,52.77
2023-12-01T13:49:09.313Z,52.77
2023-12-01T13:51:37.402Z,52.79
2023-12-01T13:54:04.953Z,52.67
2023-12-01T13:56:32.384Z,52.80
2023-12-01T13:58:59.939Z,52.93
2023-12-01T14:01:27.369Z,52.94
2023-12-01T14:03:54.902Z,52.87
2023-12-01T14:06:22.455Z,52.94
2023-12-01T14:08:49.984Z,52.90
2023-12-01T14:11:17.233Z,52.91
2023-12-01T14:13:44.586Z,53.00
2023-12-01T14:16:13.112Z,53.12
2023-12-01T14:18:40.639Z,53.36
2023-12-01T14:21:08.092Z,53.46
2023-12-01T14:23:35.424Z,53.57
2023-12-01T14:26:02.791Z,53.58
2023-12-01T14:28:32.013Z,53.58
2023-12-01T14:31:00.561Z,53.57
2023-12-01T14:33:27.935Z,53.43
2023-12-01T14:35:55.520Z,53.42
2023-12-01T14:38:22.817Z,53.36
2023-12-01T14:40:50.071Z,53.46
2023-12-01T14:43:17.429Z,53.33
2023-12-01T14:45:44.711Z,53.22
2023-12-01T14:48:12.168Z,53.29
2023-12-01T14:50:40.610Z,53.24
2023-12-01T14:53:07.960Z,53.16
2023-12-01T14:55:35.213Z,53.23
2023-12-01T14:58:02.463Z,53.16
2023-12-01T15:00:29.944Z,53.19
2023-12-01T15:02:57.319Z,53.19
2023-12-01T15:05:24.637Z,53.15
2023-12-01T15:07:51.877Z,53.11
2023-12-01T15:10:19.128Z,53.05
2023-12-01T15:12:46.584Z,53.07
2023-12-01T15:15:13.969Z,53.05
2023-12-01T15:17:41.422Z,53.13
2023-12-01T15:20:10.079Z,53.01
2023-12-01T15:22:37.329Z,53.08
2023-12-01T15:25:05.296Z,53.05
2023-12-01T15:27:33.671Z,53.05
2023-12-01T15:30:00.968Z,53.03
2023-12-01T15:32:29.020Z,53.04
2023-12-01T15:34:56.452Z,53.00
2023-12-01T15:37:23.704Z,53.02
2023-12-01T15:39:51.152Z,52.99
2023-12-01T15:42:18.651Z,52.95
2023-12-01T15:44:46.084Z,52.98
2023-12-01T15:47:13.426Z,53.06
2023-12-01T15:49:40.670Z,53.00
2023-12-01T15:52:08.472Z,53.00
2023-12-01T15:54:35.820Z,53.01
2023-12-01T15:57:03.921Z,52.94
2023-12-01T15:59:31.522Z,52.98
2023-12-01T16:01:59.525Z,53.00
2023-12-01T16:04:26.838Z,53.00
2023-12-01T16:06:54.090Z,52.92
2023-12-01T16:09:21.361Z,52.96
2023-12-01T16:11:48.703Z,52.92
2023-12-01T16:14:16.054Z,52.99
2023-12-01T16:16:43.518Z,52.99
2023-12-01T16:19:10.965Z,52.89
2023-12-01T16:21:45.444Z,52.91
2023-12-01T16:24:14.100Z,52.99
2023-12-01T16:26:42.345Z,52.97
2023-12-01T16:29:09.612Z,52.94
2023-12-01T16:31:37.653Z,52.92
2023-12-01T16:34:04.985Z,53.00
2023-12-01T16:36:33.727Z,52.99
2023-12-01T16:39:01.780Z,52.94
2023-12-01T16:41:29.340Z,52.96
2023-12-01T16:43:57.903Z,53.00
2023-12-01T16:46:25.162Z,52.96
2023-12-01T16:48:52.561Z,53.02
2023-12-01T16:51:20.096Z,52.97
2023-12-01T16:53:47.571Z,52.92
2023-12-01T16:56:17.608Z,52.93
2023-12-01T16:58:46.548Z,53.02
2023-12-01T17:01:13.885Z,52.97
2023-12-01T17:03:41.247Z,52.99
2023-12-01T17:06:09.246Z,52.96
2023-12-01T17:08:36.555Z,52.98
2023-12-01T17:11:03.909Z,52.95
2023-12-01T17:13:32.229Z,53.00
2023-12-01T17:15:59.527Z,52.88
2023-12-01T17:18:27.194Z,52.95
2023-12-01T17:20:54.594Z,52.89
2023-12-01T17:23:23.453Z,52.87
2023-12-01T17:25:50.799Z,52.90
2023-12-01T17:28:18.152Z,52.96
2023-12-01T17:30:45.402Z,52.98
2023-12-01T17:33:12.724Z,52.91
2023-12-01T17:35:42.409Z,52.92
2023-12-01T17:38:42.282Z,52.99
2023-12-01T17:41:09.559Z,52.95
2023-12-01T17:43:36.782Z,52.94
2023-12-01T17:46:04.672Z,52.89
2023-12-01T17:48:32.137Z,52.94
2023-12-01T17:50:59.482Z,52.96
2023-12-01T17:53:26.706Z,52.97
2023-12-01T17:55:53.961Z,52.93
2023-12-01T17:58:21.209Z,53.00
2023-12-01T18:00:48.563Z,52.94
2023-12-01T18:03:15.875Z,52.93
2023-12-01T18:05:43.272Z,52.88
2023-12-01T18:08:10.622Z,52.91
2023-12-01T18:10:38.195Z,52.94
2023-12-01T18:13:05.770Z,52.93
2023-12-01T18:15:33.059Z,52.89
2023-12-01T18:18:00.419Z,52.91
2023-12-01T18:20:27.802Z,52.96
2023-12-01T18:22:55.555Z,52.92
2023-12-01T18:25:23.426Z,52.91
2023-12-01T18:27:50.577Z,52.94
2023-12-01T18:30:20.585Z,52.97
2023-12-01T18:32:48.152Z,52.91
2023-12-01T18:35:16.525Z,52.89
2023-12-01T18:37:43.777Z,52.94
2023-12-01T18:40:12.472Z,52.92
2023-12-01T18:42:39.712Z,52.91
2023-12-01T18:45:07.673Z,52.96
2023-12-01T18:47:37.289Z,52.98
2023-12-01T18:50:05.292Z,52.98
2023-12-01T18:52:32.707Z,52.89
2023-12-01T18:54:59.963Z,52.90
2023-12-01T18:57:27.871Z,52.94
2023-12-01T18:59:55.346Z,52.90
2023-12-01T19:02:23.003Z,52.89
2023-12-01T19:04:50.401Z,52.94
2023-12-01T19:07:17.957Z,52.96
2023-12-01T19:09:45.514Z,52.97
2023-12-01T19:12:12.894Z,53.00
2023-12-01T19:14:40.221Z,52.98
2023-12-01T19:17:07.574Z,52.88
2023-12-01T19:19:34.874Z,52.92
2023-12-01T19:22:02.392Z,52.97
2023-12-01T19:24:30.166Z,52.92
2023-12-01T19:26:57.534Z,52.93
2023-12-01T19:29:24.955Z,52.89
2023-12-01T19:31:52.309Z,52.91
2023-12-01T19:34:19.626Z,52.91
2023-12-01T19:36:47.329Z,52.96
2023-12-01T19:39:14.627Z,52.89
2023-12-01T19:41:43.052Z,52.90
2023-12-01T19:44:10.302Z,52.85
2023-12-01T19:46:37.666Z,52.86
2023-12-01T19:49:05.160Z,52.91
2023-12-01T19:51:32.948Z,52.92
2023-12-01T19:54:00.326Z,52.92
2023-12-01T19:56:29.133Z,52.91
2023-12-01T19:58:56.370Z,52.90
2023-12-01T20:01:23.619Z,52.89
2023-12-01T20:03:50.975Z,52.87
2023-12-01T20:06:18.464Z,52.87
2023-12-01T20:08:45.890Z,52.86
2023-12-01T20:11:13.137Z,52.90
2023-12-01T20:13:40.495Z,52.90
2023-12-01T20:16:08.358Z,52.91
2023-12-01T20:18:35.860Z,52.83
2023-12-01T20:21:03.697Z,52.86
2023-12-01T20:23:31.025Z,52.89
2023-12-01T20:25:58.301Z,52.88
2023-12-01T20:28:25.475Z,52.86
2023-12-01T20:30:52.787Z,52.92
2023-12-01T20:33:20.137Z,52.85
2023-12-01T20:35:48.406Z,52.82
2023-12-01T20:38:15.883Z,52.86
2023-12-01T20:40:43.131Z,52.85
2023-12-01T20:43:10.368Z,52.86
2023-12-01T20:45:38.099Z,52.86
2023-12-01T20:48:05.986Z,52.94
2023-12-01T20:50:33.368Z,52.86
2023-12-01T20:53:00.702Z,52.89
2023-12-01T20:55:28.053Z,52.83
2023-12-01T20:57:55.305Z,52.88
2023-12-01T21:00:22.714Z,52.86
2023-12-01T21:02:50.143Z,52.86
2023-12-01T21:05:17.687Z,52.85
2023-12-01T21:07:45.666Z,52.79
2023-12-01T21:10:13.106Z,52.81
2023-12-01T21:12:40.349Z,52.81
2023-12-01T21:15:08.523Z,52.75
2023-12-01T21:17:36.965Z,52.80
2023-12-01T21:20:05.430Z,52.84
2023-12-01T21:22:32.741Z,52.83
2023-12-01T21:24:59.982Z,52.87
2023-12-01T21:27:27.380Z,52.86
2023-12-01T21:29:54.730Z,52.77
2023-12-01T21:32:23.787Z,52.80
2023-12-01T21:34:51.060Z,52.81
2023-12-01T21:37:18.387Z,52.80
2023-12-01T21:39:45.676Z,52.83
2023-12-01T21:42:13.048Z,52.77
2023-12-01T21:44:42.699Z,52.81
2023-12-01T21:47:09.963Z,52.79
2023-12-01T21:49:37.499Z,52.82
2023-12-01T21:52:04.772Z,52.81
2023-12-01T21:54:32.191Z,52.81
2023-12-01T21:56:59.898Z,52.77
2023-12-01T21:59:27.129Z,52.78
2023-12-01T22:01:54.443Z,52.81
2023-12-01T22:04:21.841Z,52.77
2023-12-01T22:06:52.660Z,52.85
2023-12-01T22:09:20.894Z,52.73
2023-12-01T22:11:48.212Z,52.84
2023-12-01T22:14:15.655Z,52.87
2023-12-01T22:16:44.195Z,52.83
2023-12-01T22:19:14.159Z,52.79
2023-12-01T22:21:41.402Z,52.84
2023-12-01T22:24:08.777Z,52.77
2023-12-01T22:26:36.109Z,52.79
2023-12-01T22:29:03.359Z,52.73
2023-12-01T22:31:33.584Z,52.78
2023-12-01T22:34:00.867Z,52.72
2023-12-01T22:36:28.194Z,52.75
2023-12-01T22:38:55.490Z,52.75
2023-12-01T22:41:22.898Z,52.80
2023-12-01T22:43:50.153Z,52.80
2023-12-01T22:46:17.616Z,52.77
2023-12-01T22:48:45.050Z,52.79
2023-12-01T22:51:13.780Z,52.77
2023-12-01T22:53:41.194Z,52.82
2023-12-01T22:56:12.003Z,52.77
2023-12-01T22:58:40.100Z,52.88
2023-12-01T23:01:09.065Z,52.76
2023-12-01T23:03:36.456Z,52.76
2023-12-01T23:06:04.554Z,52.73
2023-12-01T23:08:32.171Z,52.78
2023-12-01T23:10:59.545Z,52.73
2023-12-01T23:13:26.879Z,52.75
2023-12-01T23:15:54.150Z,52.77
2023-12-01T23:18:21.647Z,52.67
2023-12-01T23:20:49.038Z,52.71
2023-12-01T23:23:16.531Z,52.80
2023-12-01T23:25:43.953Z,52.70
2023-12-01T23:28:11.230Z,52.66
2023-12-01T23:30:38.638Z,52.73
2023-12-01T23:33:06.090Z,52.72
2023-12-01T23:35:33.588Z,52.67
2023-12-01T23:38:00.823Z,52.75
2023-12-01T23:40:28.282Z,52.68
2023-12-01T23:42:56.367Z,52.68
2023-12-01T23:45:23.628Z,52.70
2023-12-01T23:47:50.910Z,52.69
2023-12-01T23:50:18.432Z,52.68
2023-12-01T23:52:45.675Z,52.67
2023-12-01T23:55:12.912Z,52.67
2023-12-01T23:57:40.061Z,52.69
